Time;durP1;ratioP1;P1;durP2;ratioP2;P2;SDS_P1;SDS_P2;PMS_P1;PMS_P2;Temp;Humidity;BMP_temperature;BMP_pressure;BME280_temperature;BME280_humidity;BME280_pressure;Samples;Min_cycle;Max_cycle;Signal;HPM_P1;HPM_P2
2022/04/08 00:01:36;;;;;;;;;;;;;;;13.32;75.46;95802.50;1637708;87;21971;-82
2022/04/08 00:04:03;;;;;;;;;;;;;;;13.32;75.11;95805.12;1639146;86;26074;-82
2022/04/08 00:06:29;;;;;;;;;;;;;;;13.33;74.78;95804.13;1637650;87;24448;-82
2022/04/08 00:08:55;;;;;;;;;;;;;;;13.31;74.61;95810.09;1639690;86;20805;-82
2022/04/08 00:11:21;;;;;;;;;;;;;;;13.28;74.66;95815.70;1639666;87;20750;-82
2022/04/08 00:13:52;;;;;;;;;;;;;;;13.21;74.95;95794.63;1645329;86;20272;-82
2022/04/08 00:16:17;;;;;;;;;;;;;;;13.04;75.53;95818.15;1633749;86;26235;-82
2022/04/08 00:18:45;;;;;;;;;;;;;;;12.79;76.07;95837.38;1647266;86;24691;-82
2022/04/08 00:21:11;;;;;;;;;;;;;;;12.61;76.65;95847.93;1649145;86;20293;-82
2022/04/08 00:23:37;;;;;;;;;;;;;;;12.43;77.38;95871.94;1645837;86;24948;-83
2022/04/08 00:26:04;;;;;;;;;;;;;;;12.32;77.91;95865.83;1635561;86;22613;-83
2022/04/08 00:28:30;;;;;;;;;;;;;;;12.24;78.45;95865.91;1644862;86;26020;-82
2022/04/08 00:30:57;;;;;;;;;;;;;;;12.14;78.90;95866.98;1642467;86;24506;-82
2022/04/08 00:33:25;;;;;;;;;;;;;;;12.08;79.07;95877.37;1644770;86;20495;-82
2022/04/08 00:35:51;;;;;;;;;;;;;;;12.06;79.13;95882.78;1640664;86;25700;-82
2022/04/08 00:38:17;;;;;;;;;;;;;;;12.03;79.14;95884.95;1640128;86;22139;-86
2022/04/08 00:40:43;;;;;;;;;;;;;;;12.02;79.13;95889.39;1646021;86;26033;-86
2022/04/08 00:43:13;;;;;;;;;;;;;;;12.01;79.17;95889.06;1645440;86;24438;-85
2022/04/08 00:45:39;;;;;;;;;;;;;;;12.00;79.24;95895.81;1643224;86;20205;-85
2022/04/08 00:48:07;;;;;;;;;;;;;;;11.95;79.23;95896.32;1640726;86;20723;-86
2022/04/08 00:50:35;;;;;;;;;;;;;;;11.94;79.18;95908.31;1639441;86;22067;-86
2022/04/08 00:53:01;;;;;;;;;;;;;;;11.94;79.19;95908.31;1637688;86;26067;-86
2022/04/08 00:55:28;;;;;;;;;;;;;;;11.94;79.29;95906.52;1642103;86;24447;-84
2022/04/08 00:57:54;;;;;;;;;;;;;;;11.91;79.54;95902.92;1639902;86;20213;-84
2022/04/08 01:00:22;;;;;;;;;;;;;;;11.88;79.77;95906.40;1640186;86;20746;-84
2022/04/08 01:02:48;;;;;;;;;;;;;;;11.84;80.16;95907.23;1645073;86;22812;-84
2022/04/08 01:05:16;;;;;;;;;;;;;;;11.78;80.56;95901.41;1641109;86;26043;-83
2022/04/08 01:07:42;;;;;;;;;;;;;;;11.74;80.96;95910.59;1642677;86;24563;-83
2022/04/08 01:10:09;;;;;;;;;;;;;;;11.71;81.34;95914.85;1647400;86;20495;-83
2022/04/08 01:12:35;;;;;;;;;;;;;;;11.68;81.68;95921.73;1645624;85;25012;-83
2022/04/08 01:15:03;;;;;;;;;;;;;;;11.66;81.99;95922.42;1637526;87;20329;-83
2022/04/08 01:17:29;;;;;;;;;;;;;;;11.64;82.31;95918.66;1638444;87;26176;-82
2022/04/08 01:19:55;;;;;;;;;;;;;;;11.64;82.57;95923.91;1634934;86;24513;-82
2022/04/08 01:22:21;;;;;;;;;;;;;;;11.63;82.78;95927.50;1637382;87;20876;-82
2022/04/08 01:24:53;;;;;;;;;;;;;;;11.61;82.99;95926.88;1637128;87;20315;-82
2022/04/08 01:27:17;;;;;;;;;;;;;;;11.59;83.23;95939.33;1636400;87;21897;-81
2022/04/08 01:29:44;;;;;;;;;;;;;;;11.57;83.44;95943.09;1636921;87;26731;-83
2022/04/08 01:32:10;;;;;;;;;;;;;;;11.52;83.59;95932.33;1637357;87;20358;-83
2022/04/08 01:34:37;;;;;;;;;;;;;;;11.51;83.62;95941.20;1639072;87;20472;-82
2022/04/08 01:37:03;;;;;;;;;;;;;;;11.49;83.77;95954.95;1632847;87;25072;-82
2022/04/08 01:39:29;;;;;;;;;;;;;;;11.46;83.84;95953.97;1640450;87;21793;-82
2022/04/08 01:41:55;;;;;;;;;;;;;;;11.43;83.75;95955.64;1637616;87;25984;-82
2022/04/08 01:44:21;;;;;;;;;;;;;;;11.39;83.30;95964.84;1638370;87;24499;-82
2022/04/08 01:46:47;;;;;;;;;;;;;;;11.36;82.83;95973.84;1637206;86;20283;-82
2022/04/08 01:49:13;;;;;;;;;;;;;;;11.29;81.59;95992.03;1637489;87;25133;-81
2022/04/08 01:51:39;;;;;;;;;;;;;;;11.24;79.92;95985.19;1638622;87;22081;-81
2022/04/08 01:54:05;;;;;;;;;;;;;;;11.20;78.01;96019.25;1636965;87;21186;-82
2022/04/08 01:56:31;;;;;;;;;;;;;;;11.12;75.91;96010.62;1639013;87;20820;-81
2022/04/08 01:58:57;;;;;;;;;;;;;;;11.06;74.14;96016.53;1638091;87;20483;-81
2022/04/08 02:01:23;;;;;;;;;;;;;;;10.99;72.89;96019.00;1637844;87;20274;-81
2022/04/08 02:03:49;;;;;;;;;;;;;;;10.90;71.76;96009.55;1634434;87;20361;-81
2022/04/08 02:06:15;;;;;;;;;;;;;;;10.86;70.86;96026.55;1638063;87;26231;-82
2022/04/08 02:08:41;;;;;;;;;;;;;;;10.79;70.31;96005.98;1635713;87;20861;-81
2022/04/08 02:11:07;;;;;;;;;;;;;;;10.76;70.08;96027.23;1638212;86;20316;-82
2022/04/08 02:13:34;;;;;;;;;;;;;;;10.73;69.68;96026.27;1638158;87;20766;-82
2022/04/08 02:16:00;;;;;;;;;;;;;;;10.70;69.34;96037.87;1637454;87;22212;-82
2022/04/08 02:18:26;;;;;;;;;;;;;;;10.62;69.04;96060.63;1638771;87;26087;-82
2022/04/08 02:20:52;;;;;;;;;;;;;;;10.44;69.17;96056.87;1638788;87;24584;-83
2022/04/08 02:23:18;;;;;;;;;;;;;;;10.25;69.53;96062.44;1639453;87;20800;-82
2022/04/08 02:25:46;;;;;;;;;;;;;;;10.12;69.94;96062.88;1633986;87;24985;-83
2022/04/08 02:28:12;;;;;;;;;;;;;;;10.04;70.18;96067.59;1635353;87;22123;-82
2022/04/08 02:30:40;;;;;;;;;;;;;;;9.98;69.56;96072.67;1639044;87;26255;-82
2022/04/08 02:33:06;;;;;;;;;;;;;;;9.98;68.85;96085.22;1636725;87;24621;-82
2022/04/08 02:35:32;;;;;;;;;;;;;;;9.96;68.50;96093.73;1637200;87;20327;-82
2022/04/08 02:37:58;;;;;;;;;;;;;;;9.93;67.95;96086.20;1637814;87;20299;-82
2022/04/08 02:40:24;;;;;;;;;;;;;;;9.88;67.02;96097.62;1637284;87;20848;-82
2022/04/08 02:42:50;;;;;;;;;;;;;;;9.86;66.22;96102.20;1636514;86;21057;-82
2022/04/08 02:45:17;;;;;;;;;;;;;;;9.81;65.58;96099.25;1636023;86;24531;-83
2022/04/08 02:47:43;;;;;;;;;;;;;;;9.76;64.92;96112.46;1636539;86;20232;-83
2022/04/08 02:50:11;;;;;;;;;;;;;;;9.75;64.25;96118.66;1634793;87;24984;-83
2022/04/08 02:52:37;;;;;;;;;;;;;;;9.70;63.53;96116.53;1634749;87;22161;-82
2022/04/08 02:55:04;;;;;;;;;;;;;;;9.68;62.72;96108.02;1636337;87;26034;-82
2022/04/08 02:57:30;;;;;;;;;;;;;;;9.66;62.12;96126.93;1636103;86;24422;-83
2022/04/08 02:59:55;;;;;;;;;;;;;;;9.60;61.54;96115.33;1638195;87;20763;-82
2022/04/08 03:02:22;;;;;;;;;;;;;;;9.60;61.05;96126.28;1636431;87;25062;-81
2022/04/08 03:04:48;;;;;;;;;;;;;;;9.55;60.74;96126.73;1636145;87;21888;-81
2022/04/08 03:07:13;;;;;;;;;;;;;;;9.53;60.45;96140.94;1638009;87;21000;-82
2022/04/08 03:09:39;;;;;;;;;;;;;;;9.49;60.18;96139.63;1635226;87;20262;-82
2022/04/08 03:12:06;;;;;;;;;;;;;;;9.44;59.81;96140.06;1616886;87;20262;-83
2022/04/08 03:14:32;;;;;;;;;;;;;;;9.40;59.48;96136.14;1641502;86;25000;-83
2022/04/08 03:16:58;;;;;;;;;;;;;;;9.37;59.22;96131.73;1649682;86;20343;-83
2022/04/08 03:19:24;;;;;;;;;;;;;;;9.34;58.94;96141.97;1640557;86;21056;-83
2022/04/08 03:21:50;;;;;;;;;;;;;;;9.30;58.74;96143.27;1637144;86;24498;-82
2022/04/08 03:24:16;;;;;;;;;;;;;;;9.24;58.50;96137.36;1645998;86;21796;-82
2022/04/08 03:26:42;;;;;;;;;;;;;;;9.21;58.32;96129.86;1640061;86;25044;-82
2022/04/08 03:29:08;;;;;;;;;;;;;;;9.19;58.17;96131.78;1643733;86;22139;-82
2022/04/08 03:31:34;;;;;;;;;;;;;;;9.18;58.11;96128.36;1645723;86;21158;-82
2022/04/08 03:34:02;;;;;;;;;;;;;;;9.15;58.12;96162.60;1639943;86;24584;-83
2022/04/08 03:36:28;;;;;;;;;;;;;;;9.14;58.21;96171.88;1605645;86;20245;-82
2022/04/08 03:38:54;;;;;;;;;;;;;;;9.11;58.37;96169.59;1641202;86;20283;-82
2022/04/08 03:41:20;;;;;;;;;;;;;;;9.10;58.58;96179.20;1609218;86;20750;-82
2022/04/08 03:43:45;;;;;;;;;;;;;;;9.06;58.89;96180.46;1634204;86;20932;-83
2022/04/08 03:46:13;;;;;;;;;;;;;;;9.00;59.28;96176.36;1645853;86;20347;-83
2022/04/08 03:48:43;;;;;;;;;;;;;;;8.94;59.72;96186.09;1635852;86;20194;-82
2022/04/08 03:51:09;;;;;;;;;;;;;;;8.86;60.18;96182.93;1644921;86;25183;-83
2022/04/08 03:53:36;;;;;;;;;;;;;;;8.81;60.68;96188.61;1642174;86;21945;-83
2022/04/08 03:56:02;;;;;;;;;;;;;;;8.77;61.12;96201.62;1645222;86;26161;-83
2022/04/08 03:58:34;;;;;;;;;;;;;;;8.73;61.59;96181.19;1644548;86;24423;-83
2022/04/08 04:01:00;;;;;;;;;;;;;;;8.68;62.09;96193.38;1642907;86;20163;-83
2022/04/08 04:03:26;;;;;;;;;;;;;;;8.64;62.57;96188.13;1636904;86;20220;-83
2022/04/08 04:05:53;;;;;;;;;;;;;;;8.61;63.01;96198.88;1646282;86;22626;-83
2022/04/08 04:08:19;;;;;;;;;;;;;;;8.57;63.41;96200.13;1639759;86;25991;-83
2022/04/08 04:10:45;;;;;;;;;;;;;;;8.55;63.76;96199.95;1635157;86;24539;-83
2022/04/08 04:13:11;;;;;;;;;;;;;;;8.54;64.04;96213.47;1642906;85;20272;-84
2022/04/08 04:15:37;;;;;;;;;;;;;;;8.51;64.29;96203.83;1636194;87;20219;-84
2022/04/08 04:18:03;;;;;;;;;;;;;;;8.50;64.46;96193.89;1613042;87;20261;-84
2022/04/08 04:20:30;;;;;;;;;;;;;;;8.49;64.53;96203.97;1636439;87;26159;-84
2022/04/08 04:22:56;;;;;;;;;;;;;;;8.50;64.59;96217.34;1638911;87;24722;-84
2022/04/08 04:25:22;;;;;;;;;;;;;;;8.47;64.57;96217.62;1636980;87;20216;-84
2022/04/08 04:27:48;;;;;;;;;;;;;;;8.48;64.52;96212.75;1638705;87;20309;-85
2022/04/08 04:30:14;;;;;;;;;;;;;;;8.48;64.53;96217.14;1637365;87;20920;-84
2022/04/08 04:32:40;;;;;;;;;;;;;;;8.47;64.43;96212.41;1633910;87;25973;-84
2022/04/08 04:35:06;;;;;;;;;;;;;;;8.48;64.21;96219.75;1637090;87;24401;-83
2022/04/08 04:37:34;;;;;;;;;;;;;;;8.47;63.96;96212.41;1637138;87;20420;-83
2022/04/08 04:40:08;;;;;;;;;;;;;;;8.49;63.58;96233.13;1634624;87;25566;-84
2022/04/08 04:42:34;;;;;;;;;;;;;;;8.53;63.39;96237.07;1637170;87;21549;-84
2022/04/08 04:45:01;;;;;;;;;;;;;;;8.54;63.14;96249.14;1635080;87;26679;-84
2022/04/08 04:47:27;;;;;;;;;;;;;;;8.54;62.88;96240.84;1636106;87;24483;-84
2022/04/08 04:49:53;;;;;;;;;;;;;;;8.56;62.60;96246.73;1638041;87;20227;-84
2022/04/08 04:52:19;;;;;;;;;;;;;;;8.58;62.24;96247.87;1639833;87;20293;-84
2022/04/08 04:54:51;;;;;;;;;;;;;;;8.59;61.90;96241.69;1634453;87;20375;-83
2022/04/08 04:57:18;;;;;;;;;;;;;;;8.62;61.49;96260.97;1638034;87;26016;-83
2022/04/08 04:59:44;;;;;;;;;;;;;;;8.67;61.11;96255.61;1636738;87;24624;-83
2022/04/08 05:02:10;;;;;;;;;;;;;;;8.73;60.83;96247.20;1637466;87;20908;-84
2022/04/08 05:04:36;;;;;;;;;;;;;;;8.84;60.64;96244.84;1638506;87;25034;-84
2022/04/08 05:07:01;;;;;;;;;;;;;;;8.93;60.40;96246.58;1638928;87;20306;-83
2022/04/08 05:09:28;;;;;;;;;;;;;;;9.00;60.07;96259.84;1633489;87;21070;-84
2022/04/08 05:11:54;;;;;;;;;;;;;;;9.08;59.84;96257.28;1639597;87;25394;-84
2022/04/08 05:14:22;;;;;;;;;;;;;;;9.13;59.54;96260.25;1619055;87;20784;-84
2022/04/08 05:16:49;;;;;;;;;;;;;;;9.15;59.15;96264.85;1604889;89;25008;-84
2022/04/08 05:19:16;;;;;;;;;;;;;;;9.16;58.75;96271.20;1606143;88;21985;-84
2022/04/08 05:21:43;;;;;;;;;;;;;;;9.15;58.34;96272.20;1607058;88;26093;-84
2022/04/08 05:24:08;;;;;;;;;;;;;;;9.16;58.00;96269.89;1604417;89;24783;-84
2022/04/08 05:26:34;;;;;;;;;;;;;;;9.21;57.72;96278.60;1605214;89;20206;-84
2022/04/08 05:29:00;;;;;;;;;;;;;;;9.26;57.39;96288.09;1606602;89;24964;-84
2022/04/08 05:31:26;;;;;;;;;;;;;;;9.35;57.21;96291.09;1605148;89;20947;-84
2022/04/08 05:33:52;;;;;;;;;;;;;;;9.39;56.91;96285.08;1605463;89;26111;-83
2022/04/08 05:36:18;;;;;;;;;;;;;;;9.42;56.60;96298.66;1604387;89;20324;-84
2022/04/08 05:38:45;;;;;;;;;;;;;;;9.46;56.35;96288.23;1606068;89;20357;-84
2022/04/08 05:41:13;;;;;;;;;;;;;;;9.45;55.85;96290.52;1606001;89;25076;-83
2022/04/08 05:43:44;;;;;;;;;;;;;;;9.48;55.53;96301.97;1607102;89;22102;-83
2022/04/08 05:46:07;;;;;;;;;;;;;;;9.52;55.26;96312.92;1606103;89;26042;-84
2022/04/08 05:48:33;;;;;;;;;;;;;;;9.55;54.89;96313.42;1604997;89;24445;-83
2022/04/08 05:50:59;;;;;;;;;;;;;;;9.56;54.55;96318.98;1606211;88;20326;-84
2022/04/08 05:53:26;;;;;;;;;;;;;;;9.64;54.32;96321.67;1606910;88;25027;-83
2022/04/08 05:55:54;;;;;;;;;;;;;;;9.65;54.05;96340.25;1607039;89;22713;-83
2022/04/08 05:58:20;;;;;;;;;;;;;;;9.69;53.83;96349.11;1606192;89;26759;-83
2022/04/08 06:00:47;;;;;;;;;;;;;;;9.67;53.53;96359.70;1605936;89;20411;-83
2022/04/08 06:03:13;;;;;;;;;;;;;;;9.71;53.47;96373.30;1606366;89;20346;-83
2022/04/08 06:05:39;;;;;;;;;;;;;;;9.70;53.26;96375.09;1605826;89;25549;-83
2022/04/08 06:08:05;;;;;;;;;;;;;;;9.70;53.08;96368.55;1605430;89;20874;-82
2022/04/08 06:10:36;;;;;;;;;;;;;;;9.69;52.88;96379.14;1605457;89;26073;-82
2022/04/08 06:13:02;;;;;;;;;;;;;;;9.69;52.69;96383.06;1606546;89;24709;-82
2022/04/08 06:15:28;;;;;;;;;;;;;;;9.72;52.56;96385.36;1627625;87;20223;-83
2022/04/08 06:17:57;;;;;;;;;;;;;;;9.73;52.44;96375.25;1630278;87;20297;-82
2022/04/08 06:20:23;;;;;;;;;;;;;;;9.73;52.31;96384.39;1629487;88;21982;-83
2022/04/08 06:22:49;;;;;;;;;;;;;;;9.74;52.18;96375.59;1629725;88;26266;-82
2022/04/08 06:25:16;;;;;;;;;;;;;;;9.74;52.06;96378.20;1606097;88;24452;-82
2022/04/08 06:27:46;;;;;;;;;;;;;;;9.79;51.98;96385.09;1629707;87;20264;-83
2022/04/08 06:30:14;;;;;;;;;;;;;;;9.80;51.84;96391.48;1629719;88;25129;-83
2022/04/08 06:32:41;;;;;;;;;;;;;;;9.85;51.76;96381.39;1630106;88;21972;-83
2022/04/08 06:35:07;;;;;;;;;;;;;;;9.90;51.66;96386.16;1629803;88;26119;-83
2022/04/08 06:37:33;;;;;;;;;;;;;;;9.99;51.74;96399.11;1606067;88;20348;-82
2022/04/08 06:40:03;;;;;;;;;;;;;;;9.98;51.54;96403.20;1629998;88;20314;-83
2022/04/08 06:42:29;;;;;;;;;;;;;;;9.97;51.36;96400.25;1627873;88;24975;-84
2022/04/08 06:44:55;;;;;;;;;;;;;;;10.00;51.21;96406.47;1629752;88;20820;-83
2022/04/08 06:47:21;;;;;;;;;;;;;;;10.00;51.04;96416.44;1629859;88;20983;-84
2022/04/08 06:49:47;;;;;;;;;;;;;;;10.01;50.90;96410.73;1628237;88;20280;-84
2022/04/08 06:52:13;;;;;;;;;;;;;;;9.99;50.69;96416.09;1629953;87;20839;-84
2022/04/08 06:54:40;;;;;;;;;;;;;;;10.04;50.73;96427.39;1629705;87;24932;-84
2022/04/08 06:57:06;;;;;;;;;;;;;;;10.08;50.68;96408.66;1630000;88;22050;-83
2022/04/08 06:59:32;;;;;;;;;;;;;;;10.10;50.62;96430.70;1630170;88;26075;-83
2022/04/08 07:01:59;;;;;;;;;;;;;;;10.11;50.47;96434.14;1629841;88;25088;-83
2022/04/08 07:04:26;;;;;;;;;;;;;;;10.14;50.43;96437.29;1628312;88;20240;-83
2022/04/08 07:06:56;;;;;;;;;;;;;;;10.21;50.48;96447.95;1630107;88;24959;-84
2022/04/08 07:09:22;;;;;;;;;;;;;;;10.22;50.40;96429.52;1630057;88;22117;-83
2022/04/08 07:11:48;;;;;;;;;;;;;;;10.19;50.22;96448.14;1630125;88;26096;-83
2022/04/08 07:14:14;;;;;;;;;;;;;;;10.25;50.21;96453.23;1632515;87;24461;-83
2022/04/08 07:16:43;;;;;;;;;;;;;;;10.25;50.11;96452.75;1636932;87;20298;-83
2022/04/08 07:19:10;;;;;;;;;;;;;;;10.28;50.03;96460.27;1637463;87;25171;-83
2022/04/08 07:21:36;;;;;;;;;;;;;;;10.26;49.88;96458.29;1639307;87;22092;-83
2022/04/08 07:24:02;;;;;;;;;;;;;;;10.31;49.79;96453.94;1639465;87;25993;-83
2022/04/08 07:26:28;;;;;;;;;;;;;;;10.39;49.87;96463.94;1633808;87;24445;-83
2022/04/08 07:28:55;;;;;;;;;;;;;;;10.46;49.85;96474.61;1635266;87;20250;-83
2022/04/08 07:31:21;;;;;;;;;;;;;;;10.47;49.70;96471.82;1636574;87;25276;-83
2022/04/08 07:33:47;;;;;;;;;;;;;;;10.49;49.54;96472.50;1638554;87;22088;-83
2022/04/08 07:36:13;;;;;;;;;;;;;;;10.53;49.41;96461.75;1636387;87;26046;-83
2022/04/08 07:38:39;;;;;;;;;;;;;;;10.58;49.38;96473.87;1632459;87;24525;-83
2022/04/08 07:41:06;;;;;;;;;;;;;;;10.64;49.38;96465.37;1639889;86;20449;-83
2022/04/08 07:43:32;;;;;;;;;;;;;;;10.72;49.40;96478.52;1640193;87;25078;-83
2022/04/08 07:45:58;;;;;;;;;;;;;;;10.73;49.28;96471.00;1637509;87;20392;-83
2022/04/08 07:48:27;;;;;;;;;;;;;;;10.72;49.16;96475.41;1639017;86;20976;-83
2022/04/08 07:50:54;;;;;;;;;;;;;;;10.79;49.12;96480.84;1638134;87;24541;-82
2022/04/08 07:53:20;;;;;;;;;;;;;;;10.88;49.11;96480.72;1637424;87;20306;-82
2022/04/08 07:55:46;;;;;;;;;;;;;;;10.97;49.11;96478.95;1637888;87;24976;-82
2022/04/08 07:58:12;;;;;;;;;;;;;;;11.01;49.09;96486.02;1639946;87;20312;-82
2022/04/08 08:00:38;;;;;;;;;;;;;;;10.91;48.81;96475.64;1636185;86;25829;-82
2022/04/08 08:03:04;;;;;;;;;;;;;;;10.96;48.78;96493.03;1636181;87;20861;-82
2022/04/08 08:05:32;;;;;;;;;;;;;;;11.04;48.76;96487.00;1615807;87;20704;-82
2022/04/08 08:07:59;;;;;;;;;;;;;;;10.98;48.42;96499.40;1638189;87;25671;-82
2022/04/08 08:10:29;;;;;;;;;;;;;;;10.95;48.24;96495.31;1635995;86;21940;-82
2022/04/08 08:12:56;;;;;;;;;;;;;;;10.98;48.15;96479.77;1635042;87;26016;-83
2022/04/08 08:15:24;;;;;;;;;;;;;;;11.01;47.96;96493.38;1635149;87;25328;-83
2022/04/08 08:17:51;;;;;;;;;;;;;;;10.99;47.64;96507.10;1633999;87;20239;-83
2022/04/08 08:20:19;;;;;;;;;;;;;;;10.93;47.35;96510.83;1635094;87;25026;-83
2022/04/08 08:22:45;;;;;;;;;;;;;;;10.86;47.23;96506.70;1635208;87;22781;-83
2022/04/08 08:25:11;;;;;;;;;;;;;;;10.83;47.11;96502.61;1635299;87;26122;-84
2022/04/08 08:27:41;;;;;;;;;;;;;;;10.87;47.09;96520.94;1635129;87;24513;-84
2022/04/08 08:30:11;;;;;;;;;;;;;;;11.01;47.20;96521.35;1635205;87;20561;-85
2022/04/08 08:32:39;;;;;;;;;;;;;;;11.15;47.35;96526.80;1634938;87;24994;-82
2022/04/08 08:35:07;;;;;;;;;;;;;;;11.26;47.33;96521.29;1635357;87;22180;-83
2022/04/08 08:37:35;;;;;;;;;;;;;;;11.33;47.20;96533.27;1635361;87;26152;-83
2022/04/08 08:40:02;;;;;;;;;;;;;;;11.36;47.01;96515.09;1633680;87;24618;-83
2022/04/08 08:42:28;;;;;;;;;;;;;;;11.29;46.77;96539.29;1635327;87;20494;-83
2022/04/08 08:45:00;;;;;;;;;;;;;;;11.30;46.66;96529.16;1635221;87;25062;-83
2022/04/08 08:47:29;;;;;;;;;;;;;;;11.36;46.65;96517.22;1635403;87;22072;-83
2022/04/08 08:49:56;;;;;;;;;;;;;;;11.50;46.65;96523.66;1635221;87;26014;-83
2022/04/08 08:52:22;;;;;;;;;;;;;;;11.51;46.46;96521.38;1635234;87;24391;-83
2022/04/08 08:54:48;;;;;;;;;;;;;;;11.45;46.23;96537.73;1635283;87;20245;-83
2022/04/08 08:57:15;;;;;;;;;;;;;;;11.50;46.22;96526.28;1635260;87;25097;-83
2022/04/08 08:59:42;;;;;;;;;;;;;;;11.54;46.18;96553.31;1645819;87;22075;-83
2022/04/08 09:02:08;;;;;;;;;;;;;;;11.53;46.02;96546.42;1614635;88;26949;-82
2022/04/08 09:04:36;;;;;;;;;;;;;;;11.54;45.95;96545.45;1635055;87;24477;-82
2022/04/08 09:07:02;;;;;;;;;;;;;;;11.54;45.80;96555.93;1637044;86;20231;-82
2022/04/08 09:09:31;;;;;;;;;;;;;;;11.51;45.66;96550.98;1639956;87;25040;-83
2022/04/08 09:11:59;;;;;;;;;;;;;;;11.50;45.52;96556.41;1638061;87;22060;-83
2022/04/08 09:14:28;;;;;;;;;;;;;;;11.56;45.50;96553.98;1637653;86;26070;-83
2022/04/08 09:17:01;;;;;;;;;;;;;;;11.55;45.32;96550.20;1643197;86;25123;-83
2022/04/08 09:19:30;;;;;;;;;;;;;;;11.47;45.02;96561.46;1639412;87;20488;-83
2022/04/08 09:21:56;;;;;;;;;;;;;;;11.50;44.86;96556.41;1642293;86;25039;-83
2022/04/08 09:24:27;;;;;;;;;;;;;;;11.53;44.71;96560.83;1642276;87;22225;-83
2022/04/08 09:26:51;;;;;;;;;;;;;;;11.56;44.58;96559.70;1639891;87;26145;-83
2022/04/08 09:29:18;;;;;;;;;;;;;;;11.64;44.60;96571.51;1642688;87;24609;-83
2022/04/08 09:31:49;;;;;;;;;;;;;;;11.71;44.66;96576.45;1643712;87;20249;-83
2022/04/08 09:34:19;;;;;;;;;;;;;;;11.70;44.61;96570.39;1644028;87;25033;-83
2022/04/08 09:36:46;;;;;;;;;;;;;;;11.71;44.52;96586.94;1645007;87;22100;-82
2022/04/08 09:39:13;;;;;;;;;;;;;;;11.70;44.36;96572.19;1644064;87;26067;-83
2022/04/08 09:41:40;;;;;;;;;;;;;;;11.77;44.34;96588.13;1647912;87;24446;-83
2022/04/08 09:44:07;;;;;;;;;;;;;;;11.84;44.22;96565.55;1643489;86;20675;-83
2022/04/08 09:46:34;;;;;;;;;;;;;;;11.88;44.10;96572.92;1649524;87;25042;-83
2022/04/08 09:49:00;;;;;;;;;;;;;;;12.00;44.10;96559.82;1645491;87;22057;-83
2022/04/08 09:51:27;;;;;;;;;;;;;;;11.99;43.85;96577.05;1644586;87;21179;-83
2022/04/08 09:53:57;;;;;;;;;;;;;;;11.96;43.71;96579.97;1646457;87;25108;-83
2022/04/08 09:56:24;;;;;;;;;;;;;;;11.95;43.63;96579.14;1645475;86;20223;-83
2022/04/08 09:58:52;;;;;;;;;;;;;;;11.94;43.52;96574.91;1639456;87;26277;-84
2022/04/08 10:01:18;;;;;;;;;;;;;;;11.89;43.22;96577.68;1635605;87;21961;-84
2022/04/08 10:03:47;;;;;;;;;;;;;;;11.82;42.91;96582.73;1643089;86;26088;-83
2022/04/08 10:06:13;;;;;;;;;;;;;;;11.74;42.74;96586.63;1644810;87;24232;-83
2022/04/08 10:08:40;;;;;;;;;;;;;;;11.67;42.61;96589.03;1640277;87;20887;-83
2022/04/08 10:11:09;;;;;;;;;;;;;;;11.68;42.59;96587.23;1644418;87;24952;-83
2022/04/08 10:13:48;;;;;;;;;;;;;;;11.69;42.61;96581.02;1647927;87;22062;-83
2022/04/08 10:16:18;;;;;;;;;;;;;;;11.71;42.61;96589.55;1641654;86;26007;-83
2022/04/08 10:18:44;;;;;;;;;;;;;;;11.73;42.69;96586.30;1642371;87;24574;-83
2022/04/08 10:21:11;;;;;;;;;;;;;;;11.78;42.77;96574.88;1645316;87;20449;-83
2022/04/08 10:23:38;;;;;;;;;;;;;;;11.77;42.76;96575.02;1642810;87;24960;-82
2022/04/08 10:26:05;;;;;;;;;;;;;;;11.78;42.74;96572.25;1645073;87;22054;-82
2022/04/08 10:28:35;;;;;;;;;;;;;;;11.81;42.74;96574.54;1645913;87;26053;-82
2022/04/08 10:31:02;;;;;;;;;;;;;;;11.83;42.73;96576.52;1643270;86;24487;-82
2022/04/08 10:33:29;;;;;;;;;;;;;;;11.83;42.69;96577.83;1645726;87;20441;-82
2022/04/08 10:35:56;;;;;;;;;;;;;;;11.87;42.78;96576.52;1641272;87;25019;-82
2022/04/08 10:38:22;;;;;;;;;;;;;;;11.94;42.90;96579.33;1646323;87;22057;-82
2022/04/08 10:40:53;;;;;;;;;;;;;;;11.97;42.86;96571.13;1645679;87;26739;-82
2022/04/08 10:43:19;;;;;;;;;;;;;;;11.96;42.80;96580.80;1639465;86;24524;-82
2022/04/08 10:45:56;;;;;;;;;;;;;;;11.95;42.72;96579.63;1642558;87;20325;-82
2022/04/08 10:48:24;;;;;;;;;;;;;;;11.94;42.66;96572.77;1646356;87;24986;-82
2022/04/08 10:50:50;;;;;;;;;;;;;;;11.97;42.58;96571.95;1622384;86;21982;-82
2022/04/08 10:53:25;;;;;;;;;;;;;;;12.05;42.61;96571.16;1647609;87;21089;-82
2022/04/08 10:55:50;;;;;;;;;;;;;;;12.08;42.63;96570.33;1649840;87;23985;-82
2022/04/08 10:58:19;;;;;;;;;;;;;;;12.15;42.63;96573.95;1634120;88;20298;-82
2022/04/08 11:00:47;;;;;;;;;;;;;;;12.30;42.74;96573.30;1641582;86;25614;-82
2022/04/08 11:03:13;;;;;;;;;;;;;;;12.51;42.86;96561.33;1642646;86;22085;-82
2022/04/08 11:05:39;;;;;;;;;;;;;;;12.67;42.82;96575.42;1642549;87;20829;-82
2022/04/08 11:08:06;;;;;;;;;;;;;;;12.83;42.80;96574.91;1640667;87;24513;-82
2022/04/08 11:10:32;;;;;;;;;;;;;;;12.91;42.65;96581.47;1644785;87;20260;-82
2022/04/08 11:12:59;;;;;;;;;;;;;;;12.90;42.45;96575.89;1644510;87;25065;-82
2022/04/08 11:15:28;;;;;;;;;;;;;;;12.70;42.04;96568.05;1644610;87;22775;-82
2022/04/08 11:17:53;;;;;;;;;;;;;;;12.55;41.79;96577.55;1643266;86;26798;-82
2022/04/08 11:20:21;;;;;;;;;;;;;;;12.68;41.88;96582.31;1641684;87;24426;-82
2022/04/08 11:22:52;;;;;;;;;;;;;;;12.80;41.91;96566.07;1641239;87;20466;-82
2022/04/08 11:25:20;;;;;;;;;;;;;;;12.98;42.04;96565.88;1641912;87;25024;-82
2022/04/08 11:28:00;;;;;;;;;;;;;;;12.99;41.86;96556.50;1640133;87;22072;-82
2022/04/08 11:30:27;;;;;;;;;;;;;;;13.03;41.73;96558.81;1643244;87;26229;-82
2022/04/08 11:32:53;;;;;;;;;;;;;;;13.09;41.66;96557.61;1643556;87;24601;-82
2022/04/08 11:35:19;;;;;;;;;;;;;;;13.11;41.59;96552.20;1642118;87;20322;-82
2022/04/08 11:37:45;;;;;;;;;;;;;;;13.07;41.53;96551.73;1642200;87;24973;-83
2022/04/08 11:40:17;;;;;;;;;;;;;;;12.89;41.32;96551.93;1640006;87;21954;-83
2022/04/08 11:42:46;;;;;;;;;;;;;;;12.75;41.18;96551.80;1642451;87;26025;-83
2022/04/08 11:45:14;;;;;;;;;;;;;;;12.73;41.17;96543.27;1642000;87;24425;-83
2022/04/08 11:47:43;;;;;;;;;;;;;;;12.79;41.22;96542.11;1640331;87;20252;-83
2022/04/08 11:50:09;;;;;;;;;;;;;;;12.85;41.19;96531.44;1643851;86;24988;-83
2022/04/08 11:52:38;;;;;;;;;;;;;;;12.92;41.23;96530.61;1640440;86;22043;-83
2022/04/08 11:55:05;;;;;;;;;;;;;;;12.97;41.25;96534.04;1643932;87;26073;-83
2022/04/08 11:57:33;;;;;;;;;;;;;;;13.06;41.13;96530.88;1642417;85;25055;-83
2022/04/08 12:00:04;;;;;;;;;;;;;;;12.99;40.92;96526.30;1644314;87;20249;-83
2022/04/08 12:02:31;;;;;;;;;;;;;;;12.82;40.58;96527.33;1642520;87;24993;-83
2022/04/08 12:04:58;;;;;;;;;;;;;;;12.73;40.42;96506.52;1622082;87;21961;-86
2022/04/08 12:07:24;;;;;;;;;;;;;;;12.68;40.32;96514.08;1642110;87;26053;-86
2022/04/08 12:09:54;;;;;;;;;;;;;;;12.70;40.27;96509.00;1642654;87;24419;-85
2022/04/08 12:12:24;;;;;;;;;;;;;;;12.81;40.30;96523.09;1643048;86;20153;-85
2022/04/08 12:14:50;;;;;;;;;;;;;;;12.86;40.26;96520.78;1641600;86;25001;-86
2022/04/08 12:17:16;;;;;;;;;;;;;;;12.78;40.09;96527.83;1643098;87;20251;-85
2022/04/08 12:19:42;;;;;;;;;;;;;;;12.68;39.87;96529.33;1640138;85;20930;-85
2022/04/08 12:22:09;;;;;;;;;;;;;;;12.60;39.80;96528.02;1645672;87;24429;-86
2022/04/08 12:24:35;;;;;;;;;;;;;;;12.56;39.75;96522.78;1641886;86;20189;-85
2022/04/08 12:27:03;;;;;;;;;;;;;;;12.58;39.76;96522.14;1641245;87;20235;-85
2022/04/08 12:29:30;;;;;;;;;;;;;;;12.66;39.84;96528.67;1642848;87;22575;-85
2022/04/08 12:32:00;;;;;;;;;;;;;;;12.76;39.91;96520.64;1645467;87;26258;-86
2022/04/08 12:34:28;;;;;;;;;;;;;;;12.78;39.84;96515.53;1641873;87;24606;-85
2022/04/08 12:36:53;;;;;;;;;;;;;;;12.86;39.83;96516.84;1641408;87;20531;-86
2022/04/08 12:39:19;;;;;;;;;;;;;;;13.00;39.93;96511.37;1640149;87;20786;-86
2022/04/08 12:41:46;;;;;;;;;;;;;;;13.16;39.99;96505.27;1641130;87;20885;-86
2022/04/08 12:44:15;;;;;;;;;;;;;;;13.19;39.91;96502.32;1645055;87;25967;-84
2022/04/08 12:46:41;;;;;;;;;;;;;;;13.18;39.82;96488.36;1641366;87;24653;-86
2022/04/08 12:49:07;;;;;;;;;;;;;;;13.15;39.69;96493.13;1644204;86;20207;-86